Time;durP1;ratioP1;P1;durP2;ratioP2;P2;SDS_P1;SDS_P2;PMS_P1;PMS_P2;Temp;Humidity;BMP_temperature;BMP_pressure;BME280_temperature;BME280_humidity;BME280_pressure;Samples;Min_cycle;Max_cycle;Signal;HPM_P1;HPM_P2
2022/08/18 07:21:57;;;;;;;;;;;25.70;73.60;;;;;;6094774;22;19925;-78
2022/08/18 07:24:27;;;;;;;;;;;25.70;73.70;;;;;;5037315;28;20299;-80
2022/08/18 07:26:57;;;;;;;;;;;25.70;73.70;;;;;;5037281;28;20003;-84
2022/08/18 07:29:24;;;;;;;;;;;25.70;73.70;;;;;;5037615;28;19921;-84
2022/08/18 07:31:52;;;;;;;;;;;25.70;73.70;;;;;;5037898;28;19921;-83
2022/08/18 07:34:20;;;;;;;;;;;25.70;73.70;;;;;;5037779;28;20011;-81
2022/08/18 07:36:49;;;;;;;;;;;25.70;73.70;;;;;;5035762;28;19921;-80
2022/08/18 07:39:23;;;;;;;;;;;25.70;73.70;;;;;;5037068;28;19920;-80
2022/08/18 07:41:56;;;;;;;;;;;25.70;73.70;;;;;;5036821;28;19921;-80
2022/08/18 07:44:25;;;;;;;;;;;25.70;73.70;;;;;;5036857;28;19931;-80
2022/08/18 07:46:58;;;;;;;;;;;25.70;73.70;;;;;;5036718;28;19979;-82
2022/08/18 07:49:27;;;;;;;;;;;25.70;74.50;;;;;;5037216;28;19929;-82
2022/08/18 07:51:59;;;;;;;;;;;25.60;73.60;;;;;;5037361;28;19953;-82
2022/08/18 07:54:32;;;;;;;;;;;25.60;73.20;;;;;;5040040;28;20420;-82
2022/08/18 07:57:04;;;;;;;;;;;25.60;73.20;;;;;;5043523;28;19921;-82
2022/08/18 07:59:36;;;;;;;;;;;25.60;73.20;;;;;;5041902;28;19985;-82
2022/08/18 08:02:11;;;;;;;;;;;25.60;73.00;;;;;;5043054;28;19925;-81
2022/08/18 08:04:41;;;;;;;;;;;25.60;72.90;;;;;;5042265;28;19921;-80
2022/08/18 08:07:10;;;;;;;;;;;25.60;72.80;;;;;;5037545;28;19921;-82
2022/08/18 08:09:42;;;;;;;;;;;25.60;72.90;;;;;;5039998;28;19963;-83
2022/08/18 08:12:16;;;;;;;;;;;25.60;72.80;;;;;;5037367;28;20380;-81
2022/08/18 08:14:44;;;;;;;;;;;25.50;72.60;;;;;;5037681;28;19924;-80
2022/08/18 08:17:16;;;;;;;;;;;25.50;72.70;;;;;;5037431;28;20023;-80
2022/08/18 08:19:57;;;;;;;;;;;25.50;72.70;;;;;;5036784;28;20434;-80
2022/08/18 08:22:30;;;;;;;;;;;25.50;73.00;;;;;;5091315;22;19924;-77
2022/08/18 08:25:01;;;;;;;;;;;25.50;73.20;;;;;;5035133;28;19921;-75
2022/08/18 08:27:33;;;;;;;;;;;25.50;73.40;;;;;;5035577;28;19975;-75
2022/08/18 08:30:02;;;;;;;;;;;25.60;73.40;;;;;;5035024;28;19928;-77
2022/08/18 08:32:31;;;;;;;;;;;25.50;73.50;;;;;;5035096;28;19927;-77
2022/08/18 08:35:02;;;;;;;;;;;25.50;73.50;;;;;;5034685;28;20380;-77
2022/08/18 08:37:32;;;;;;;;;;;25.50;73.50;;;;;;5034950;28;20439;-75
2022/08/18 08:40:01;;;;;;;;;;;25.50;73.50;;;;;;5036360;28;20012;-78
2022/08/18 08:42:36;;;;;;;;;;;25.60;73.60;;;;;;5037653;28;19924;-79
2022/08/18 08:45:06;;;;;;;;;;;25.60;73.60;;;;;;5035173;28;20403;-77
2022/08/18 08:47:36;;;;;;;;;;;25.60;73.60;;;;;;5035066;28;19968;-78
2022/08/18 08:50:06;;;;;;;;;;;25.60;73.80;;;;;;5036288;28;19985;-78
2022/08/18 08:52:37;;;;;;;;;;;25.60;74.00;;;;;;5035046;28;19921;-74
2022/08/18 08:55:05;;;;;;;;;;;25.60;74.10;;;;;;5034304;28;19925;-74
2022/08/18 08:57:35;;;;;;;;;;;25.60;74.20;;;;;;5034167;28;20398;-75
2022/08/18 09:00:04;;;;;;;;;;;25.60;74.30;;;;;;5034447;28;19979;-75
2022/08/18 09:02:34;;;;;;;;;;;25.60;74.50;;;;;;5034602;28;19921;-74
2022/08/18 09:05:05;;;;;;;;;;;25.60;74.50;;;;;;5034419;28;19921;-74
2022/08/18 09:07:39;;;;;;;;;;;25.60;74.50;;;;;;5034428;28;19921;-74
2022/08/18 09:10:24;;;;;;;;;;;25.60;74.60;;;;;;5034367;28;19924;-74
2022/08/18 09:13:02;;;;;;;;;;;25.70;74.80;;;;;;5033747;28;20015;-74
2022/08/18 09:15:40;;;;;;;;;;;25.70;74.80;;;;;;5034259;28;19920;-75
2022/08/18 09:18:27;;;;;;;;;;;25.70;74.90;;;;;;5034129;28;19968;-75
2022/08/18 09:20:58;;;;;;;;;;;25.70;74.90;;;;;;5034177;28;19927;-75
2022/08/18 09:23:27;;;;;;;;;;;25.70;74.90;;;;;;5033824;28;20051;-75
2022/08/18 09:25:55;;;;;;;;;;;25.70;74.90;;;;;;5034102;28;19925;-75
2022/08/18 09:28:39;;;;;;;;;;;25.70;74.90;;;;;;5033808;28;20368;-75
2022/08/18 09:31:16;;;;;;;;;;;25.70;74.90;;;;;;5033754;28;19920;-75
2022/08/18 09:33:51;;;;;;;;;;;25.70;74.90;;;;;;5033675;28;19933;-76
2022/08/18 09:36:24;;;;;;;;;;;25.70;74.90;;;;;;5033950;28;19921;-75
2022/08/18 09:41:44;;;;;;;;;;;25.70;74.90;;;;;;5034151;28;19967;-75
2022/08/18 09:44:13;;;;;;;;;;;25.70;74.90;;;;;;5034261;28;19921;-75
2022/08/18 09:46:55;;;;;;;;;;;25.70;74.80;;;;;;5033770;28;19927;-75
2022/08/18 09:49:32;;;;;;;;;;;25.70;74.80;;;;;;5033709;28;19921;-75
2022/08/18 09:52:00;;;;;;;;;;;25.70;74.70;;;;;;5034013;28;19921;-75
2022/08/18 09:54:28;;;;;;;;;;;25.70;74.80;;;;;;5033823;28;19928;-75
2022/08/18 09:56:56;;;;;;;;;;;25.70;74.70;;;;;;5033718;28;19924;-75
2022/08/18 09:59:44;;;;;;;;;;;25.70;74.60;;;;;;5034631;28;20023;-75
2022/08/18 10:02:13;;;;;;;;;;;25.70;74.60;;;;;;5019933;28;20012;-75
2022/08/18 10:04:47;;;;;;;;;;;25.70;74.60;;;;;;5037725;28;19986;-75
2022/08/18 10:07:19;;;;;;;;;;;25.70;74.50;;;;;;5037685;28;19983;-75
2022/08/18 10:09:51;;;;;;;;;;;25.70;74.50;;;;;;5037412;28;20011;-75
2022/08/18 10:12:35;;;;;;;;;;;25.70;74.40;;;;;;5037547;28;19964;-75
2022/08/18 10:15:14;;;;;;;;;;;25.70;74.30;;;;;;5037614;28;19921;-75
2022/08/18 10:17:56;;;;;;;;;;;25.70;74.30;;;;;;5037478;28;20350;-76
2022/08/18 10:20:30;;;;;;;;;;;25.70;74.20;;;;;;5037482;28;20024;-76
2022/08/18 10:22:57;;;;;;;;;;;25.70;74.10;;;;;;5037093;28;19920;-76
2022/08/18 10:25:38;;;;;;;;;;;25.70;74.00;;;;;;5037311;28;19976;-76
2022/08/18 10:28:05;;;;;;;;;;;25.80;74.00;;;;;;5037003;28;20303;-76
2022/08/18 10:30:46;;;;;;;;;;;25.70;73.70;;;;;;5037252;28;19928;-76
2022/08/18 10:33:34;;;;;;;;;;;25.70;73.70;;;;;;5036782;28;19964;-76
2022/08/18 10:36:02;;;;;;;;;;;25.80;73.80;;;;;;5036780;28;20269;-75
2022/08/18 10:38:37;;;;;;;;;;;25.80;73.80;;;;;;5037020;28;19921;-76
2022/08/18 10:41:05;;;;;;;;;;;25.80;73.80;;;;;;5037106;28;19921;-76
2022/08/18 10:43:36;;;;;;;;;;;25.80;73.80;;;;;;5036871;28;19921;-76
2022/08/18 10:46:03;;;;;;;;;;;25.80;73.80;;;;;;5036861;28;19974;-76
2022/08/18 10:48:31;;;;;;;;;;;25.80;73.80;;;;;;5036881;28;19921;-76
2022/08/18 10:51:01;;;;;;;;;;;25.80;73.80;;;;;;5036843;28;19927;-75
2022/08/18 10:53:34;;;;;;;;;;;25.80;73.80;;;;;;5036719;28;19924;-75
2022/08/18 10:56:01;;;;;;;;;;;25.80;73.80;;;;;;5036514;28;20406;-75
2022/08/18 10:58:49;;;;;;;;;;;25.80;73.80;;;;;;5036412;28;19975;-75
2022/08/18 11:01:21;;;;;;;;;;;25.80;73.80;;;;;;5033577;28;19927;-75
2022/08/18 11:04:06;;;;;;;;;;;25.80;73.80;;;;;;5037224;28;20344;-75
2022/08/18 11:06:41;;;;;;;;;;;25.80;73.60;;;;;;5036314;28;19929;-75
2022/08/18 11:09:10;;;;;;;;;;;25.80;73.50;;;;;;5036514;28;20274;-75
2022/08/18 11:11:42;;;;;;;;;;;25.80;73.30;;;;;;5034871;28;19921;-77
2022/08/18 11:14:22;;;;;;;;;;;25.80;73.20;;;;;;5036382;28;19921;-76
2022/08/18 11:16:52;;;;;;;;;;;25.80;73.20;;;;;;5036030;28;19921;-76
2022/08/18 11:19:21;;;;;;;;;;;25.80;73.10;;;;;;5036344;28;19927;-76
2022/08/18 11:21:48;;;;;;;;;;;25.80;72.90;;;;;;5037027;28;20259;-76
2022/08/18 11:24:19;;;;;;;;;;;25.80;72.80;;;;;;5035783;28;20295;-76
2022/08/18 11:26:47;;;;;;;;;;;25.80;72.70;;;;;;5036213;28;19920;-76
2022/08/18 11:29:18;;;;;;;;;;;25.80;72.70;;;;;;5035845;28;19932;-76
2022/08/18 11:31:45;;;;;;;;;;;25.80;72.60;;;;;;5036124;28;19925;-77
2022/08/18 11:34:14;;;;;;;;;;;25.80;72.50;;;;;;5036843;28;19933;-79
2022/08/18 11:36:41;;;;;;;;;;;25.80;72.40;;;;;;5038143;28;19927;-82
2022/08/18 11:39:09;;;;;;;;;;;25.80;72.30;;;;;;5040367;28;20439;-80
2022/08/18 11:41:40;;;;;;;;;;;25.80;72.30;;;;;;5039074;28;19921;-78
2022/08/18 11:44:15;;;;;;;;;;;25.80;72.40;;;;;;5038334;28;19921;-82
2022/08/18 11:46:42;;;;;;;;;;;25.80;72.40;;;;;;5040543;28;19955;-79
2022/08/18 11:49:15;;;;;;;;;;;25.80;72.40;;;;;;5038641;28;19921;-79
2022/08/18 11:51:53;;;;;;;;;;;25.80;72.30;;;;;;5039760;28;19928;-79
2022/08/18 11:54:21;;;;;;;;;;;25.80;72.30;;;;;;5037197;28;19967;-76
2022/08/18 11:56:49;;;;;;;;;;;25.80;72.20;;;;;;5038976;28;19963;-78
2022/08/18 11:59:32;;;;;;;;;;;25.80;72.00;;;;;;5037495;28;19975;-78
2022/08/18 12:01:59;;;;;;;;;;;25.80;71.90;;;;;;5035518;28;19921;-78
2022/08/18 12:04:28;;;;;;;;;;;25.80;71.90;;;;;;5035293;28;19921;-78
2022/08/18 12:06:59;;;;;;;;;;;25.80;71.80;;;;;;5035491;28;19976;-76
2022/08/18 12:09:29;;;;;;;;;;;25.80;71.70;;;;;;5035519;28;20019;-76
2022/08/18 12:11:59;;;;;;;;;;;25.80;71.60;;;;;;5036510;28;20028;-76
2022/08/18 12:14:27;;;;;;;;;;;25.80;71.40;;;;;;5035630;28;19975;-76
2022/08/18 12:16:54;;;;;;;;;;;25.80;71.10;;;;;;5035162;28;19921;-77
2022/08/18 12:19:22;;;;;;;;;;;25.80;71.00;;;;;;5035177;28;20399;-76
2022/08/18 12:21:50;;;;;;;;;;;25.70;70.80;;;;;;5034863;28;19928;-77
2022/08/18 12:24:19;;;;;;;;;;;25.70;70.70;;;;;;5034795;28;20291;-76
2022/08/18 12:26:46;;;;;;;;;;;25.70;70.60;;;;;;5035080;28;19921;-77
2022/08/18 12:29:16;;;;;;;;;;;25.70;70.50;;;;;;5035406;28;19931;-78
2022/08/18 12:31:42;;;;;;;;;;;25.70;70.30;;;;;;5035018;28;20352;-78
2022/08/18 12:34:09;;;;;;;;;;;25.70;70.20;;;;;;5035262;28;20366;-78
2022/08/18 12:36:36;;;;;;;;;;;25.70;70.20;;;;;;5035147;28;19924;-78
2022/08/18 12:39:02;;;;;;;;;;;25.70;70.10;;;;;;5034678;28;19980;-78
2022/08/18 12:41:29;;;;;;;;;;;25.70;70.00;;;;;;5035103;28;19964;-78
2022/08/18 12:43:56;;;;;;;;;;;25.70;69.90;;;;;;5034475;28;19931;-78
2022/08/18 12:46:24;;;;;;;;;;;25.70;69.70;;;;;;5034391;28;19921;-78
2022/08/18 12:48:50;;;;;;;;;;;25.70;69.60;;;;;;5034797;28;19921;-79
2022/08/18 12:51:17;;;;;;;;;;;25.70;69.60;;;;;;5034324;28;19921;-78
2022/08/18 12:53:44;;;;;;;;;;;25.70;69.50;;;;;;5034222;28;20015;-78
2022/08/18 12:56:16;;;;;;;;;;;25.70;69.50;;;;;;5034283;28;20372;-78
2022/08/18 12:58:43;;;;;;;;;;;25.70;69.40;;;;;;5035351;28;20329;-78
2022/08/18 13:01:09;;;;;;;;;;;25.70;69.30;;;;;;5034536;28;19960;-78
2022/08/18 13:03:39;;;;;;;;;;;25.70;69.30;;;;;;5034516;28;20380;-77
2022/08/18 13:06:06;;;;;;;;;;;25.70;69.20;;;;;;5035057;28;19925;-77
2022/08/18 13:08:33;;;;;;;;;;;25.70;69.20;;;;;;5034840;28;19953;-76
2022/08/18 13:11:00;;;;;;;;;;;25.70;69.10;;;;;;5034061;28;19960;-76
2022/08/18 13:13:27;;;;;;;;;;;25.70;69.10;;;;;;5034053;28;19928;-76
2022/08/18 13:15:54;;;;;;;;;;;25.70;69.10;;;;;;5034237;28;19921;-76
2022/08/18 13:18:20;;;;;;;;;;;25.70;69.00;;;;;;5034325;28;19935;-76
2022/08/18 13:20:49;;;;;;;;;;;25.70;69.00;;;;;;5034932;28;19956;-76
2022/08/18 13:23:15;;;;;;;;;;;25.70;69.00;;;;;;5034026;28;19925;-76
2022/08/18 13:25:42;;;;;;;;;;;25.70;69.00;;;;;;5034372;28;19920;-76
2022/08/18 13:28:09;;;;;;;;;;;25.70;68.90;;;;;;5034279;28;20292;-76
2022/08/18 13:30:36;;;;;;;;;;;25.70;68.90;;;;;;5034209;28;20024;-76
2022/08/18 13:33:03;;;;;;;;;;;25.70;69.70;;;;;;5033815;28;19921;-76
2022/08/18 13:35:30;;;;;;;;;;;25.70;68.90;;;;;;5033344;28;19921;-76
2022/08/18 13:37:58;;;;;;;;;;;25.70;68.90;;;;;;5033978;28;19927;-76
2022/08/18 13:40:24;;;;;;;;;;;25.70;68.90;;;;;;5033731;28;19921;-76
2022/08/18 13:42:51;;;;;;;;;;;25.70;68.90;;;;;;5034297;28;19925;-76
2022/08/18 13:45:19;;;;;;;;;;;25.70;68.80;;;;;;5034967;28;19928;-77
2022/08/18 13:47:47;;;;;;;;;;;25.70;68.90;;;;;;5033726;28;19932;-76
2022/08/18 13:50:14;;;;;;;;;;;25.60;68.80;;;;;;5033922;28;19925;-75
2022/08/18 13:52:40;;;;;;;;;;;25.70;69.10;;;;;;5033500;28;20402;-76
2022/08/18 13:55:11;;;;;;;;;;;25.70;69.20;;;;;;5033801;28;19921;-76
2022/08/18 13:57:39;;;;;;;;;;;25.70;69.30;;;;;;5033810;28;19925;-76
2022/08/18 14:00:07;;;;;;;;;;;25.70;69.40;;;;;;5033795;28;19971;-76
2022/08/18 14:02:34;;;;;;;;;;;25.70;69.70;;;;;;5033733;28;19921;-76
2022/08/18 14:05:01;;;;;;;;;;;25.70;69.90;;;;;;5033746;28;19921;-76
2022/08/18 14:07:27;;;;;;;;;;;25.70;70.20;;;;;;5033816;28;19927;-76
2022/08/18 14:09:54;;;;;;;;;;;25.70;70.40;;;;;;5033879;28;19928;-77
2022/08/18 14:12:23;;;;;;;;;;;25.70;71.50;;;;;;5033757;28;19921;-76
2022/08/18 14:14:50;;;;;;;;;;;25.70;71.00;;;;;;5033525;28;19921;-76
2022/08/18 14:17:17;;;;;;;;;;;25.70;71.40;;;;;;5033704;28;19979;-76
2022/08/18 14:27:58;;;;;;;;;;;25.70;73.20;;;;;;5033527;28;20396;-76
2022/08/18 14:30:24;;;;;;;;;;;25.70;73.70;;;;;;5033428;28;19975;-76
2022/08/18 14:32:52;;;;;;;;;;;25.70;73.70;;;;;;5033869;28;20269;-76
2022/08/18 14:35:19;;;;;;;;;;;25.80;74.20;;;;;;5034699;28;19928;-76
2022/08/18 14:37:46;;;;;;;;;;;25.80;74.80;;;;;;5033243;28;20094;-76
2022/08/18 14:40:12;;;;;;;;;;;25.80;75.20;;;;;;5033325;28;20004;-76
2022/08/18 14:42:41;;;;;;;;;;;25.80;75.70;;;;;;5033446;28;19928;-76
2022/08/18 14:45:10;;;;;;;;;;;25.80;76.20;;;;;;5033613;28;20277;-76
2022/08/18 14:47:36;;;;;;;;;;;25.80;76.60;;;;;;5036624;28;20380;-76
2022/08/18 14:50:03;;;;;;;;;;;25.80;77.10;;;;;;5036555;28;20483;-76
2022/08/18 14:52:30;;;;;;;;;;;25.80;77.50;;;;;;5036797;28;20011;-76
2022/08/18 14:54:57;;;;;;;;;;;25.80;78.00;;;;;;5036515;28;20015;-76
2022/08/18 14:57:25;;;;;;;;;;;25.80;78.40;;;;;;5036757;28;19960;-76
2022/08/18 14:59:51;;;;;;;;;;;25.80;78.90;;;;;;5036636;28;19987;-76
2022/08/18 15:02:20;;;;;;;;;;;25.80;79.50;;;;;;5036649;28;19921;-76
2022/08/18 15:04:46;;;;;;;;;;;25.80;79.70;;;;;;5036299;28;20403;-76
2022/08/18 15:07:13;;;;;;;;;;;25.80;79.90;;;;;;5036293;28;20456;-76
2022/08/18 15:09:40;;;;;;;;;;;25.80;80.50;;;;;;5036577;28;19960;-76
2022/08/18 15:12:07;;;;;;;;;;;25.80;81.00;;;;;;5036418;28;19964;-76
2022/08/18 15:14:35;;;;;;;;;;;25.80;81.40;;;;;;5036435;28;19972;-76
2022/08/18 15:17:02;;;;;;;;;;;25.80;81.80;;;;;;5036417;28;19960;-76
2022/08/18 15:19:30;;;;;;;;;;;25.80;82.20;;;;;;5036275;28;19921;-76
2022/08/18 15:27:30;;;;;;;;;;;25.80;83.50;;;;;;5036397;28;19939;-76
2022/08/18 15:29:57;;;;;;;;;;;25.80;84.00;;;;;;5036181;28;19921;-76
2022/08/18 15:32:24;;;;;;;;;;;25.80;84.40;;;;;;5036368;28;19921;-76
2022/08/18 15:34:52;;;;;;;;;;;25.80;84.80;;;;;;5036111;28;19956;-76
2022/08/18 15:37:19;;;;;;;;;;;25.80;85.10;;;;;;5035710;28;19927;-76
2022/08/18 15:39:46;;;;;;;;;;;25.80;85.50;;;;;;5035928;28;20365;-76
2022/08/18 15:42:13;;;;;;;;;;;25.80;85.50;;;;;;5035504;28;20430;-77
2022/08/18 15:44:40;;;;;;;;;;;25.80;86.30;;;;;;5035503;28;19921;-76
2022/08/18 15:47:07;;;;;;;;;;;25.80;86.00;;;;;;5035852;28;19925;-76
2022/08/18 15:49:33;;;;;;;;;;;25.80;86.40;;;;;;5035428;28;19921;-76
2022/08/18 15:52:01;;;;;;;;;;;25.80;86.70;;;;;;5035438;28;20357;-76
2022/08/18 15:54:28;;;;;;;;;;;25.70;86.90;;;;;;5035737;28;20039;-76
2022/08/18 15:56:55;;;;;;;;;;;25.70;87.20;;;;;;5034851;28;19929;-77
2022/08/18 15:59:22;;;;;;;;;;;25.70;87.50;;;;;;5038197;28;20410;-80
2022/08/18 16:01:49;;;;;;;;;;;25.70;87.80;;;;;;5039165;28;20275;-81
2022/08/18 16:04:15;;;;;;;;;;;25.70;88.00;;;;;;5039307;28;20369;-81
2022/08/18 16:06:46;;;;;;;;;;;25.70;88.10;;;;;;5039806;28;19921;-82
2022/08/18 16:09:15;;;;;;;;;;;25.70;88.20;;;;;;5040379;28;19921;-76
2022/08/18 16:11:42;;;;;;;;;;;25.60;88.40;;;;;;5035454;28;19921;-76
2022/08/18 16:14:08;;;;;;;;;;;25.60;88.60;;;;;;5035345;28;19967;-76
2022/08/18 16:16:35;;;;;;;;;;;25.60;88.80;;;;;;5035451;28;19996;-77
2022/08/18 16:19:02;;;;;;;;;;;25.60;88.90;;;;;;5035168;28;20350;-76
2022/08/18 16:21:29;;;;;;;;;;;25.60;89.00;;;;;;5035197;28;19928;-76
2022/08/18 16:23:56;;;;;;;;;;;25.60;89.20;;;;;;5034686;28;19928;-77
2022/08/18 16:26:24;;;;;;;;;;;25.60;89.40;;;;;;5039058;28;20007;-80
2022/08/18 16:28:52;;;;;;;;;;;25.60;89.60;;;;;;5042435;28;20383;-79
2022/08/18 16:31:23;;;;;;;;;;;25.60;89.90;;;;;;5044329;28;20367;-79
2022/08/18 16:33:51;;;;;;;;;;;25.60;90.00;;;;;;5047682;28;19927;-80
2022/08/18 16:36:18;;;;;;;;;;;25.60;90.10;;;;;;5045460;28;20361;-81
2022/08/18 16:38:44;;;;;;;;;;;25.60;90.20;;;;;;5043650;28;20392;-80
2022/08/18 16:41:13;;;;;;;;;;;25.60;90.40;;;;;;5043743;28;20345;-80
2022/08/18 16:43:43;;;;;;;;;;;25.60;90.40;;;;;;5042907;28;19924;-80
2022/08/18 16:46:10;;;;;;;;;;;25.60;90.40;;;;;;5043576;28;19921;-80
2022/08/18 16:48:37;;;;;;;;;;;25.60;90.40;;;;;;5041491;28;19929;-79
2022/08/18 16:51:04;;;;;;;;;;;25.60;90.40;;;;;;5040157;28;19979;-79
2022/08/18 16:53:31;;;;;;;;;;;25.60;90.60;;;;;;5036838;28;19992;-79
2022/08/18 16:55:57;;;;;;;;;;;25.60;90.70;;;;;;5043715;28;20487;-83
2022/08/18 17:04:10;;;;;;;;;;;25.50;91.10;;;;;;5041117;28;19927;-80
2022/08/18 17:06:39;;;;;;;;;;;25.50;91.30;;;;;;5040747;28;20094;-78
2022/08/18 17:09:08;;;;;;;;;;;25.50;91.50;;;;;;5045250;28;20007;-80
2022/08/18 17:11:36;;;;;;;;;;;25.50;91.60;;;;;;5043103;28;19963;-79
2022/08/18 17:14:03;;;;;;;;;;;25.50;91.70;;;;;;5043249;28;19920;-78
2022/08/18 17:16:32;;;;;;;;;;;25.50;91.80;;;;;;5040701;28;19927;-78
2022/08/18 17:18:59;;;;;;;;;;;25.50;91.80;;;;;;5040444;28;20000;-78
2022/08/18 17:21:28;;;;;;;;;;;25.50;91.90;;;;;;5040330;28;20434;-78
2022/08/18 17:23:56;;;;;;;;;;;25.40;91.90;;;;;;5038059;28;20357;-79
2022/08/18 17:26:28;;;;;;;;;;;25.40;92.00;;;;;;5034289;28;20385;-78
2022/08/18 17:28:58;;;;;;;;;;;25.40;92.10;;;;;;5034982;28;20011;-79
2022/08/18 17:31:25;;;;;;;;;;;25.40;92.20;;;;;;5034940;28;19921;-78
2022/08/18 17:33:56;;;;;;;;;;;25.40;92.30;;;;;;5034129;28;19921;-78
2022/08/18 17:36:29;;;;;;;;;;;25.40;92.40;;;;;;5034079;28;19928;-78
2022/08/18 17:38:58;;;;;;;;;;;25.40;92.50;;;;;;5033959;28;19921;-78
2022/08/18 17:41:26;;;;;;;;;;;25.40;92.60;;;;;;5033966;28;19921;-78
2022/08/18 17:43:54;;;;;;;;;;;25.40;92.60;;;;;;5033600;28;19925;-79
2022/08/18 17:46:26;;;;;;;;;;;25.50;92.70;;;;;;5033722;28;19943;-78
2022/08/18 17:48:56;;;;;;;;;;;25.40;92.70;;;;;;5034049;28;19921;-78
2022/08/18 17:51:32;;;;;;;;;;;25.40;92.70;;;;;;5033921;28;19921;-77
2022/08/18 17:54:01;;;;;;;;;;;25.40;92.60;;;;;;5033841;28;19920;-78
2022/08/18 17:56:30;;;;;;;;;;;25.40;92.70;;;;;;5033864;28;19925;-78
2022/08/18 17:59:02;;;;;;;;;;;25.40;92.90;;;;;;5036458;28;20005;-80
2022/08/18 18:01:30;;;;;;;;;;;25.40;92.90;;;;;;5040171;28;20012;-79
2022/08/18 18:03:59;;;;;;;;;;;25.40;92.90;;;;;;5037140;28;19921;-79
2022/08/18 18:06:30;;;;;;;;;;;25.40;92.90;;;;;;5037170;28;19921;-79
2022/08/18 18:08:59;;;;;;;;;;;25.40;92.90;;;;;;5038237;28;19921;-79
2022/08/18 18:11:27;;;;;;;;;;;25.40;93.00;;;;;;5037157;28;19999;-79
2022/08/18 18:13:54;;;;;;;;;;;25.40;93.10;;;;;;5036455;28;20003;-78
2022/08/18 18:16:24;;;;;;;;;;;25.40;93.20;;;;;;5033692;28;20003;-78
2022/08/18 18:18:56;;;;;;;;;;;25.40;93.30;;;;;;5033307;28;19927;-78
2022/08/18 18:21:25;;;;;;;;;;;25.40;93.30;;;;;;5036062;28;20000;-78
2022/08/18 18:23:54;;;;;;;;;;;25.40;93.40;;;;;;5037012;28;19921;-78
2022/08/18 18:26:24;;;;;;;;;;;25.40;93.50;;;;;;5037423;28;19921;-77
2022/08/18 18:28:52;;;;;;;;;;;25.40;93.50;;;;;;5037103;28;20323;-77
2022/08/18 18:31:23;;;;;;;;;;;25.40;93.50;;;;;;5038155;28;20356;-78
2022/08/18 18:33:57;;;;;;;;;;;25.40;93.50;;;;;;5037670;28;19968;-78
2022/08/18 18:36:33;;;;;;;;;;;25.40;93.50;;;;;;5037938;28;19968;-78
2022/08/18 18:39:06;;;;;;;;;;;25.40;93.50;;;;;;5039070;28;19921;-80
2022/08/18 18:41:33;;;;;;;;;;;25.40;93.50;;;;;;5038808;28;19975;-80
2022/08/18 18:44:05;;;;;;;;;;;25.40;93.50;;;;;;5038514;28;19921;-79
2022/08/18 18:46:32;;;;;;;;;;;25.40;93.50;;;;;;5038800;28;19968;-79
2022/08/18 18:49:06;;;;;;;;;;;25.40;93.50;;;;;;5038834;28;20345;-79
2022/08/18 18:51:37;;;;;;;;;;;25.40;93.50;;;;;;5039257;28;19921;-79
2022/08/18 18:54:09;;;;;;;;;;;25.40;93.40;;;;;;5038884;28;19921;-80
2022/08/18 18:56:39;;;;;;;;;;;25.40;93.30;;;;;;5038923;28;19975;-80
2022/08/18 18:59:12;;;;;;;;;;;25.30;93.20;;;;;;5039518;28;19967;-80
2022/08/18 19:01:43;;;;;;;;;;;25.30;93.20;;;;;;5040555;28;20019;-80
2022/08/18 19:04:14;;;;;;;;;;;25.30;93.00;;;;;;5043963;28;20365;-80
2022/08/18 19:06:45;;;;;;;;;;;25.30;93.00;;;;;;5042167;28;19921;-80
2022/08/18 19:09:17;;;;;;;;;;;25.30;93.10;;;;;;5043459;28;20015;-80
2022/08/18 19:11:52;;;;;;;;;;;25.30;93.20;;;;;;5042997;28;19992;-78
2022/08/18 19:14:23;;;;;;;;;;;25.30;93.20;;;;;;5039546;28;20351;-79
2022/08/18 19:16:52;;;;;;;;;;;25.30;93.20;;;;;;5039261;28;19971;-79
2022/08/18 19:19:22;;;;;;;;;;;25.30;93.40;;;;;;5038984;28;19976;-79
2022/08/18 19:21:53;;;;;;;;;;;25.40;93.50;;;;;;5038207;28;19928;-79
2022/08/18 19:24:23;;;;;;;;;;;25.40;93.50;;;;;;5039883;28;20384;-80
2022/08/18 19:26:54;;;;;;;;;;;25.40;93.50;;;;;;5040302;28;19968;-80
2022/08/18 19:29:22;;;;;;;;;;;25.40;93.60;;;;;;5040747;28;19984;-80
2022/08/18 19:31:55;;;;;;;;;;;25.40;93.60;;;;;;5039152;28;19994;-81
2022/08/18 19:34:24;;;;;;;;;;;25.40;93.70;;;;;;5040231;28;19984;-81
2022/08/18 19:36:55;;;;;;;;;;;25.40;93.80;;;;;;5040134;28;19972;-81
2022/08/18 19:39:25;;;;;;;;;;;25.40;93.80;;;;;;5040373;28;20019;-81
2022/08/18 19:41:57;;;;;;;;;;;25.40;93.90;;;;;;5039475;28;19927;-81
2022/08/18 19:44:29;;;;;;;;;;;25.40;93.90;;;;;;5039459;28;19921;-81
2022/08/18 19:46:58;;;;;;;;;;;25.40;93.90;;;;;;5039836;28;19921;-81
2022/08/18 19:49:27;;;;;;;;;;;25.40;94.00;;;;;;5040145;28;19988;-81
2022/08/18 19:52:01;;;;;;;;;;;25.40;94.00;;;;;;5039672;28;19967;-81
2022/08/18 19:54:39;;;;;;;;;;;25.40;94.10;;;;;;5038951;28;20297;-81
2022/08/18 19:57:15;;;;;;;;;;;25.40;94.10;;;;;;5039308;28;20368;-81
2022/08/18 19:59:47;;;;;;;;;;;25.40;94.10;;;;;;5039647;28;20447;-82
2022/08/18 20:02:24;;;;;;;;;;;25.40;94.10;;;;;;5041716;28;19967;-82
2022/08/18 20:04:58;;;;;;;;;;;25.40;94.10;;;;;;5044918;28;19920;-82
2022/08/18 20:07:46;;;;;;;;;;;25.40;94.20;;;;;;5044691;28;20304;-82
2022/08/18 20:10:30;;;;;;;;;;;25.50;94.30;;;;;;5025092;28;19921;-83
2022/08/18 20:13:06;;;;;;;;;;;25.50;94.30;;;;;;5042615;28;20015;-82
2022/08/18 20:15:33;;;;;;;;;;;25.50;94.40;;;;;;5043689;28;19921;-82
2022/08/18 20:18:05;;;;;;;;;;;25.50;94.40;;;;;;5042657;28;20019;-82
2022/08/18 20:20:32;;;;;;;;;;;25.50;94.40;;;;;;5041296;28;19920;-79
2022/08/18 20:23:00;;;;;;;;;;;25.50;94.40;;;;;;5063433;22;19921;-83
2022/08/18 20:25:40;;;;;;;;;;;25.50;94.50;;;;;;5038310;28;20008;-83
2022/08/18 20:28:22;;;;;;;;;;;25.50;94.50;;;;;;5037866;28;19932;-83
2022/08/18 20:30:57;;;;;;;;;;;25.50;94.50;;;;;;5036918;28;19921;-84
2022/08/18 20:33:30;;;;;;;;;;;25.50;94.60;;;;;;5037929;28;19920;-83
2022/08/18 20:36:11;;;;;;;;;;;25.50;94.60;;;;;;5038034;28;19944;-83
2022/08/18 20:38:40;;;;;;;;;;;25.50;94.50;;;;;;5036770;28;19921;-84
2022/08/18 20:41:25;;;;;;;;;;;25.50;94.50;;;;;;5036697;28;19964;-83
2022/08/18 20:43:58;;;;;;;;;;;25.50;94.50;;;;;;5037132;28;19944;-83
2022/08/18 20:46:30;;;;;;;;;;;25.50;94.50;;;;;;5037957;28;19960;-84
2022/08/18 20:49:05;;;;;;;;;;;25.50;94.50;;;;;;5035396;28;19971;-84
2022/08/18 20:51:33;;;;;;;;;;;25.50;94.50;;;;;;5035982;28;19921;-84
2022/08/18 20:54:05;;;;;;;;;;;25.50;94.40;;;;;;5035552;28;20364;-83
2022/08/18 20:56:38;;;;;;;;;;;25.50;94.40;;;;;;5036054;28;20300;-83
2022/08/18 20:59:08;;;;;;;;;;;25.50;94.40;;;;;;5035203;28;19927;-84
2022/08/18 21:01:35;;;;;;;;;;;25.50;94.30;;;;;;5035894;28;19924;-83
2022/08/18 21:04:01;;;;;;;;;;;25.50;94.30;;;;;;5036634;28;19936;-83
2022/08/18 21:06:41;;;;;;;;;;;;;;;;;;;;;
2022/08/18 21:09:09;;;;;;;;;;;25.50;94.30;;;;;;5038583;28;19931;-80
2022/08/18 21:11:38;;;;;;;;;;;25.50;94.40;;;;;;5040025;28;19977;-80
2022/08/18 21:14:07;;;;;;;;;;;25.50;94.20;;;;;;5039198;28;19921;-80
2022/08/18 21:16:39;;;;;;;;;;;24.60;93.90;;;;;;5044498;28;19980;-80
2022/08/18 21:19:12;;;;;;;;;;;25.50;94.30;;;;;;5047753;28;19932;-80
2022/08/18 21:21:41;;;;;;;;;;;25.50;94.30;;;;;;5047375;28;19920;-81
2022/08/18 21:24:18;;;;;;;;;;;25.50;94.30;;;;;;5047153;28;19944;-81
2022/08/18 21:26:46;;;;;;;;;;;25.50;94.40;;;;;;5045855;28;20438;-82
2022/08/18 21:29:19;;;;;;;;;;;25.50;94.40;;;;;;5038254;28;19921;-83
2022/08/18 21:31:54;;;;;;;;;;;25.80;94.50;;;;;;5038048;28;19928;-83
2022/08/18 21:34:30;;;;;;;;;;;25.50;94.70;;;;;;5038306;28;19981;-83
2022/08/18 21:36:57;;;;;;;;;;;25.50;94.70;;;;;;5036878;28;19921;-81
2022/08/18 21:39:24;;;;;;;;;;;25.50;94.60;;;;;;5039528;28;19921;-81
2022/08/18 21:41:53;;;;;;;;;;;25.50;94.50;;;;;;5039163;28;19921;-81
2022/08/18 21:44:23;;;;;;;;;;;25.60;94.50;;;;;;5039278;28;19936;-83
2022/08/18 21:46:51;;;;;;;;;;;25.60;94.50;;;;;;5037781;28;19927;-83
2022/08/18 21:49:30;;;;;;;;;;;25.60;94.60;;;;;;5037910;28;19929;-83
2022/08/18 21:52:03;;;;;;;;;;;25.60;94.60;;;;;;5041487;28;20329;-81
2022/08/18 21:54:31;;;;;;;;;;;25.60;94.70;;;;;;5045053;28;19921;-80
2022/08/18 21:57:20;;;;;;;;;;;25.60;94.70;;;;;;5044198;28;20353;-82
2022/08/18 22:00:05;;;;;;;;;;;25.60;94.60;;;;;;5042786;28;19975;-80
2022/08/18 22:02:34;;;;;;;;;;;25.60;94.70;;;;;;5045241;28;19921;-80
2022/08/18 22:05:00;;;;;;;;;;;24.40;94.30;;;;;;5044898;28;20299;-83
2022/08/18 22:07:30;;;;;;;;;;;25.00;94.60;;;;;;5041019;28;19944;-83
2022/08/18 22:15:37;;;;;;;;;;;25.60;94.90;;;;;;5041216;28;19924;-83
2022/08/18 22:18:06;;;;;;;;;;;25.60;95.00;;;;;;5044830;28;20361;-80
2022/08/18 22:20:51;;;;;;;;;;;25.60;95.10;;;;;;5042407;28;19991;-80
2022/08/18 22:26:09;;;;;;;;;;;25.60;95.30;;;;;;5041717;28;19928;-80
2022/08/18 22:28:42;;;;;;;;;;;25.60;95.40;;;;;;5042263;28;19921;-81